Carnival Triumph — C6FN5 — position and weather

sailwx.info

Track history (hours):
 
Tides and Currents Weather Stations Pressure Air Temp Water Temp Dewpoint Dewpoint Depression Visibility Wind Speed Wind Dir Waves Ship Positions

Carnival Triumph

Operator: Carnival Cruise Lines

Last reported at 2017-Mar-25 22:33 UTC. Time now 2017-Mar-30 04:55 UTC.
Position N 20°36' W 086°56'.

Type: Ship. MMSI: 308045000.

Date/timePositionNaut miles runAvg speedWind from/ knotsBaromVisibWave heightAir tempDewpointWater temp
2017-Mar-25 22:33N 20°36' W 086°56'8 7.5
2017-Mar-25 21:33N 20°29' W 086°59'0 0.0
2017-Mar-25 20:33N 20°29' W 086°59'0 0.0
2017-Mar-25 19:33N 20°29' W 086°59'0 0.0
2017-Mar-25 18:33N 20°29' W 086°59'0 0.0
2017-Mar-25 17:33N 20°29' W 086°59'0 0.0
2017-Mar-25 16:33N 20°29' W 086°59'0 0.0
2017-Mar-25 15:33N 20°29' W 086°59'0 0.0
2017-Mar-25 14:33N 20°29' W 086°59'0 0.0
2017-Mar-25 13:33N 20°29' W 086°59'0 0.0
2017-Mar-25 12:33N 20°29' W 086°59'2 1.8
2017-Mar-25 11:33N 20°30' W 086°59'58411.8
2017-Mar-23 10:15N 29°52' W 089°55'7 8.8
2017-Mar-23 09:30N 29°48' W 090°01'1111.5
2017-Mar-23 08:32N 29°38' W 089°55'1513.2
2017-Mar-23 07:26N 29°29' W 089°41'2211.3
2017-Mar-23 05:29N 29°16' W 089°21'  
2017-Mar-20 23:33N 20°39' W 086°54'1111.0
2017-Mar-20 22:32N 20°29' W 086°59'0 0.0
2017-Mar-20 21:32N 20°29' W 086°59'0 0.0
2017-Mar-20 20:32N 20°29' W 086°59'0 0.0
2017-Mar-20 19:32N 20°29' W 086°59'0 0.0
2017-Mar-20 18:32N 20°29' W 086°59'0 0.0
2017-Mar-20 17:32N 20°29' W 086°59'0 0.0
2017-Mar-20 16:31N 20°29' W 086°59'0 0.0
2017-Mar-20 15:31N 20°29' W 086°59'0 0.0
2017-Mar-20 14:31N 20°29' W 086°59'0 0.0
2017-Mar-20 13:28N 20°29' W 086°59'0 0.1
2017-Mar-20 12:33N 20°29' W 086°59'7 7.3
2017-Mar-20 11:33N 20°36' W 086°56'  
2017-Mar-15 23:32N 20°41' W 086°51'1414.3
2017-Mar-15 22:34N 20°29' W 086°59'  
Track history (hours):
 
Tides and Currents Weather Stations Pressure Air Temp Water Temp Dewpoint Dewpoint Depression Visibility Wind Speed Wind Dir Waves Ship Positions

Carnival Triumph

Operator: Carnival Cruise Lines

Last reported at 2017-Mar-25 22:33 UTC. Time now 2017-Mar-30 04:55 UTC.
Position N 20°36' W 086°56'.

Type: Ship. MMSI: 308045000.

Date/timePositionNaut miles runAvg speedWind from/ knotsBaromVisibWave heightAir tempDewpointWater temp
2017-Mar-25 22:33N 20°36' W 086°56'8 7.5
2017-Mar-25 21:33N 20°29' W 086°59'0 0.0
2017-Mar-25 20:33N 20°29' W 086°59'0 0.0
2017-Mar-25 19:33N 20°29' W 086°59'0 0.0
2017-Mar-25 18:33N 20°29' W 086°59'0 0.0
2017-Mar-25 17:33N 20°29' W 086°59'0 0.0
2017-Mar-25 16:33N 20°29' W 086°59'0 0.0
2017-Mar-25 15:33N 20°29' W 086°59'0 0.0
2017-Mar-25 14:33N 20°29' W 086°59'0 0.0
2017-Mar-25 13:33N 20°29' W 086°59'0 0.0
2017-Mar-25 12:33N 20°29' W 086°59'2 1.8
2017-Mar-25 11:33N 20°30' W 086°59'58411.8
2017-Mar-23 10:15N 29°52' W 089°55'7 8.8
2017-Mar-23 09:30N 29°48' W 090°01'1111.5
2017-Mar-23 08:32N 29°38' W 089°55'1513.2
2017-Mar-23 07:26N 29°29' W 089°41'2211.3
2017-Mar-23 05:29N 29°16' W 089°21'  
2017-Mar-20 23:33N 20°39' W 086°54'1111.0
2017-Mar-20 22:32N 20°29' W 086°59'0 0.0
2017-Mar-20 21:32N 20°29' W 086°59'0 0.0
2017-Mar-20 20:32N 20°29' W 086°59'0 0.0
2017-Mar-20 19:32N 20°29' W 086°59'0 0.0
2017-Mar-20 18:32N 20°29' W 086°59'0 0.0
2017-Mar-20 17:32N 20°29' W 086°59'0 0.0
2017-Mar-20 16:31N 20°29' W 086°59'0 0.0
2017-Mar-20 15:31N 20°29' W 086°59'0 0.0
2017-Mar-20 14:31N 20°29' W 086°59'0 0.0
2017-Mar-20 13:28N 20°29' W 086°59'0 0.1
2017-Mar-20 12:33N 20°29' W 086°59'7 7.3
2017-Mar-20 11:33N 20°36' W 086°56'  
2017-Mar-15 23:32N 20°41' W 086°51'1414.3
2017-Mar-15 22:34N 20°29' W 086°59'  

Dump ship's entire track history